Time;durP1;ratioP1;P1;durP2;ratioP2;P2;SDS_P1;SDS_P2;PMS_P1;PMS_P2;Temp;Humidity;BMP_temperature;BMP_pressure;BME280_temperature;BME280_humidity;BME280_pressure;Samples;Min_cycle;Max_cycle;Signal;HPM_P1;HPM_P2
2022/11/12 00:01:00;;;;;;;136.23;123.35;;;6.40;99.90;;;6.39;100.00;102300.31;4978536;28;20299;-77
2022/11/12 00:03:27;;;;;;;123.93;114.55;;;6.40;99.90;;;6.36;100.00;102305.41;4971890;28;20244;-75
2022/11/12 00:05:54;;;;;;;123.60;113.90;;;6.40;99.90;;;6.37;100.00;102310.75;4964117;28;20240;-76
2022/11/12 00:08:21;;;;;;;119.97;110.25;;;6.40;99.90;;;6.34;100.00;102305.31;4956216;28;20317;-75
2022/11/12 00:10:49;;;;;;;120.22;110.65;;;6.40;99.90;;;6.36;100.00;102311.56;4966330;28;20273;-75
2022/11/12 00:13:16;;;;;;;122.47;111.97;;;6.40;99.90;;;6.36;100.00;102308.94;4969075;28;20252;-77
2022/11/12 00:15:45;;;;;;;128.77;117.35;;;6.40;99.90;;;6.42;100.00;102316.25;4966502;28;20582;-75
2022/11/12 00:18:13;;;;;;;127.93;116.97;;;6.40;99.90;;;6.34;100.00;102312.28;4962937;28;20312;-77
2022/11/12 00:20:40;;;;;;;126.65;115.65;;;6.40;99.90;;;6.34;100.00;102313.19;4953559;28;20300;-75
2022/11/12 00:23:07;;;;;;;128.48;116.93;;;6.40;99.90;;;6.32;100.00;102314.84;4960913;28;20234;-76
2022/11/12 00:25:35;;;;;;;125.05;114.45;;;6.40;99.90;;;6.27;100.00;102311.03;4965917;28;20709;-76
2022/11/12 00:28:05;;;;;;;134.20;123.03;;;6.40;99.90;;;6.34;100.00;102314.91;4968282;28;20232;-76
2022/11/12 00:30:33;;;;;;;144.35;131.43;;;6.30;99.90;;;6.34;100.00;102321.06;4969184;28;20251;-75
2022/11/12 00:33:04;;;;;;;134.00;122.22;;;6.40;99.90;;;6.36;100.00;102324.69;4975650;28;20316;-75
2022/11/12 00:35:32;;;;;;;133.85;121.80;;;6.40;99.90;;;6.20;100.00;102302.72;4969791;28;20288;-75
2022/11/12 00:38:00;;;;;;;144.13;130.93;;;6.30;99.90;;;6.18;100.00;102307.91;4966402;28;20229;-77
2022/11/12 00:40:27;;;;;;;147.93;133.30;;;6.20;99.90;;;6.12;100.00;102299.66;4969583;28;20352;-74
2022/11/12 00:42:54;;;;;;;143.65;129.95;;;6.20;99.90;;;6.17;100.00;102303.47;4970661;28;20320;-75
2022/11/12 00:45:22;;;;;;;142.32;128.98;;;6.20;99.90;;;6.18;100.00;102310.53;4970360;28;20295;-75
2022/11/12 00:47:53;;;;;;;146.55;132.77;;;6.20;99.90;;;6.13;100.00;102314.63;4969656;28;20315;-74
2022/11/12 00:50:20;;;;;;;145.57;131.10;;;6.20;99.90;;;6.18;100.00;102317.50;4975558;28;20323;-75
2022/11/12 00:52:47;;;;;;;142.75;128.82;;;6.20;99.90;;;6.24;100.00;102328.34;4964616;28;20260;-75
2022/11/12 00:55:14;;;;;;;144.90;130.40;;;6.30;99.90;;;6.11;100.00;102316.25;4974292;28;20244;-75
2022/11/12 00:57:41;;;;;;;145.77;131.93;;;6.20;99.90;;;6.09;100.00;102302.13;4968527;28;20293;-75
2022/11/12 01:00:16;;;;;;;146.57;132.18;;;6.20;99.90;;;6.04;100.00;102298.31;4971521;28;20765;-76
2022/11/12 01:02:43;;;;;;;140.10;126.93;;;6.10;99.90;;;6.00;100.00;102302.50;4967792;28;20304;-74
2022/11/12 01:05:17;;;;;;;141.50;128.07;;;6.10;99.90;;;6.01;100.00;102298.16;4969179;28;20241;-75
2022/11/12 01:07:45;;;;;;;140.93;127.20;;;6.10;99.90;;;6.00;100.00;102306.84;4962302;28;20244;-74
2022/11/12 01:10:19;;;;;;;137.90;124.72;;;6.00;99.90;;;5.93;100.00;102296.81;4963605;28;21608;-77
2022/11/12 01:12:46;;;;;;;132.40;120.60;;;6.00;99.90;;;6.02;100.00;102299.97;4964198;28;20232;-75
2022/11/12 01:15:13;;;;;;;135.20;122.88;;;6.10;99.90;;;5.94;100.00;102294.28;4965427;28;20340;-74
2022/11/12 01:17:40;;;;;;;133.40;120.93;;;6.00;99.90;;;5.86;100.00;102287.66;4968128;28;20256;-76
2022/11/12 01:20:07;;;;;;;139.18;125.85;;;6.00;99.90;;;5.89;100.00;102295.72;4978525;28;20748;-76
2022/11/12 01:22:34;;;;;;;141.30;127.60;;;6.00;99.90;;;5.84;100.00;102293.63;4971592;28;20241;-75
2022/11/12 01:25:01;;;;;;;134.13;122.05;;;5.90;99.90;;;5.80;100.00;102292.53;4978160;28;20256;-75
2022/11/12 01:27:28;;;;;;;132.35;120.30;;;5.90;99.90;;;5.87;100.00;102297.34;4984867;28;20233;-77
2022/11/12 01:29:55;;;;;;;136.73;123.63;;;5.90;99.90;;;5.96;100.00;102299.63;4972780;28;20292;-76
2022/11/12 01:32:22;;;;;;;128.35;116.97;;;6.00;99.90;;;5.87;100.00;102299.06;4978747;28;20340;-75
2022/11/12 01:34:50;;;;;;;132.68;120.63;;;5.90;99.90;;;5.88;100.00;102307.03;4958413;28;20319;-77
2022/11/12 01:37:17;;;;;;;138.65;125.45;;;6.00;99.90;;;5.92;100.00;102301.16;4972295;28;20327;-76
2022/11/12 01:39:44;;;;;;;134.43;121.93;;;6.00;99.90;;;6.02;100.00;102308.75;4963304;28;20316;-75
2022/11/12 01:42:11;;;;;;;142.20;127.95;;;6.00;99.90;;;6.00;100.00;102299.88;4962400;28;20261;-75
2022/11/12 01:44:43;;;;;;;143.77;129.23;;;6.10;99.90;;;5.83;100.00;102284.84;4965865;28;20248;-79
2022/11/12 01:47:28;;;;;;;134.00;120.78;;;5.90;99.90;;;5.86;100.00;102292.91;4969251;28;20237;-79
2022/11/12 01:49:58;;;;;;;128.77;117.20;;;5.90;99.90;;;5.82;100.00;102285.66;4960255;28;20292;-76
2022/11/12 01:52:41;;;;;;;142.77;128.68;;;5.90;99.90;;;5.94;100.00;102302.16;4966612;28;20293;-76
2022/11/12 01:55:21;;;;;;;138.60;124.50;;;6.00;99.90;;;5.94;100.00;102301.25;4966078;28;20253;-77
2022/11/12 01:57:59;;;;;;;129.25;117.28;;;6.00;99.90;;;5.93;100.00;102295.09;4951896;28;20244;-75
2022/11/12 02:00:26;;;;;;;142.68;127.57;;;6.00;99.90;;;6.07;100.00;102307.28;4967523;28;20244;-75
2022/11/12 02:03:00;;;;;;;136.43;123.57;;;6.10;99.90;;;6.01;100.00;102296.44;4965131;28;20231;-77
2022/11/12 02:05:29;;;;;;;131.35;119.53;;;6.10;99.90;;;6.00;100.00;102294.63;4968651;28;20302;-75
2022/11/12 02:07:59;;;;;;;128.10;116.43;;;6.10;99.90;;;5.97;100.00;102294.44;4966313;28;20237;-75
2022/11/12 02:10:26;;;;;;;141.15;126.55;;;6.10;99.90;;;6.05;100.00;102298.41;4980286;28;20268;-77
2022/11/12 02:15:40;;;;;;;132.00;119.20;;;6.10;99.90;;;6.15;100.00;102293.69;4970752;28;20296;-76
2022/11/12 02:18:08;;;;;;;133.60;120.80;;;6.20;99.90;;;6.21;100.00;102300.19;4964682;28;20319;-75
2022/11/12 02:20:37;;;;;;;131.48;119.30;;;6.20;99.90;;;6.26;100.00;102306.59;4983218;28;20310;-76
2022/11/12 02:23:06;;;;;;;130.93;118.60;;;6.30;99.90;;;6.32;100.00;102303.41;4977601;28;20300;-75
2022/11/12 02:25:34;;;;;;;142.10;127.72;;;6.30;99.90;;;6.27;100.00;102297.91;4977675;28;20697;-76
2022/11/12 02:28:07;;;;;;;134.35;122.03;;;6.30;99.90;;;6.35;100.00;102306.22;4967309;28;20337;-76
2022/11/12 02:30:44;;;;;;;133.65;121.38;;;6.30;99.90;;;6.39;100.00;102314.34;4961167;28;20291;-77
2022/11/12 02:33:11;;;;;;;139.73;125.60;;;6.40;99.90;;;6.38;100.00;102311.63;4964810;28;20279;-76
2022/11/12 02:35:38;;;;;;;134.75;122.28;;;6.40;99.90;;;6.39;100.00;102305.56;4963973;28;20229;-75
2022/11/12 02:38:07;;;;;;;138.05;125.00;;;6.40;99.90;;;6.45;100.00;102312.88;4968094;28;20237;-77
2022/11/12 02:40:34;;;;;;;138.70;124.90;;;6.50;99.90;;;6.43;100.00;102305.81;4969598;28;20316;-76
2022/11/12 02:43:01;;;;;;;132.75;120.90;;;6.50;99.90;;;6.45;100.00;102297.13;4968088;28;20225;-75
2022/11/12 02:45:30;;;;;;;140.77;126.97;;;6.50;99.90;;;6.49;100.00;102297.38;4970584;28;20252;-76
2022/11/12 02:47:58;;;;;;;138.90;125.75;;;6.50;99.90;;;6.50;100.00;102304.47;4972748;28;20229;-75
2022/11/12 02:50:25;;;;;;;133.25;121.68;;;6.60;99.90;;;6.54;100.00;102308.16;4978985;28;20345;-76
2022/11/12 02:52:52;;;;;;;135.05;123.35;;;6.50;99.90;;;6.55;100.00;102305.63;4981084;28;20268;-75
2022/11/12 02:55:19;;;;;;;132.52;120.90;;;6.60;99.90;;;6.48;100.00;102299.91;4967188;28;20301;-79
2022/11/12 02:57:46;;;;;;;132.60;121.05;;;6.50;99.90;;;6.41;100.00;102296.03;4971081;28;20253;-75
2022/11/12 03:00:13;;;;;;;132.18;120.45;;;6.50;99.90;;;6.37;100.00;102294.06;4975009;28;20233;-76
2022/11/12 03:02:57;;;;;;;140.77;127.70;;;6.40;99.90;;;6.39;100.00;102295.06;4970100;28;20672;-75
2022/11/12 03:05:28;;;;;;;134.63;122.65;;;6.50;99.90;;;6.37;100.00;102294.97;4965470;28;20599;-76
2022/11/12 03:08:01;;;;;;;131.98;120.40;;;6.40;99.90;;;6.39;100.00;102293.31;4970250;28;20308;-75
2022/11/12 03:10:29;;;;;;;142.48;128.48;;;6.40;99.90;;;6.42;100.00;102297.84;4967678;28;20274;-75
2022/11/12 03:12:59;;;;;;;138.25;125.90;;;6.50;99.90;;;6.45;100.00;102298.03;4969677;28;20261;-76
2022/11/12 03:15:28;;;;;;;144.95;130.73;;;6.50;99.90;;;6.41;100.00;102296.94;4968353;28;20255;-75
2022/11/12 03:17:59;;;;;;;139.10;125.97;;;6.50;99.90;;;6.41;100.00;102296.03;4969319;28;20237;-75
2022/11/12 03:20:26;;;;;;;135.88;123.60;;;6.50;99.90;;;6.45;100.00;102305.00;4970088;28;20320;-75
2022/11/12 03:22:57;;;;;;;134.88;123.05;;;6.50;99.90;;;6.50;100.00;102306.16;4976939;28;20229;-76
2022/11/12 03:25:25;;;;;;;138.30;125.47;;;6.50;99.90;;;6.48;100.00;102307.78;4971430;28;20320;-78
2022/11/12 03:28:06;;;;;;;133.93;121.88;;;6.50;99.90;;;6.40;100.00;102291.59;4970139;28;20290;-75
2022/11/12 03:30:39;;;;;;;132.52;121.00;;;6.50;99.90;;;6.51;100.00;102298.41;4973116;28;20320;-75
2022/11/12 03:33:09;;;;;;;138.15;125.90;;;6.50;99.90;;;6.53;100.00;102301.09;4975313;28;20281;-77
2022/11/12 03:35:38;;;;;;;135.50;123.40;;;6.50;99.90;;;6.45;100.00;102291.88;4967601;28;20260;-75
2022/11/12 03:38:06;;;;;;;140.25;127.70;;;6.50;99.90;;;6.45;100.00;102290.13;4968876;28;20257;-75
2022/11/12 03:40:33;;;;;;;147.32;133.25;;;6.50;99.90;;;6.45;100.00;102289.22;4968797;28;20312;-76
2022/11/12 03:43:00;;;;;;;144.68;131.65;;;6.50;99.90;;;6.49;100.00;102293.84;4977321;28;20237;-75
2022/11/12 03:45:27;;;;;;;140.20;128.18;;;6.50;99.90;;;6.50;100.00;102291.31;4970712;28;20257;-75
2022/11/12 03:47:56;;;;;;;140.77;127.50;;;6.60;99.90;;;6.39;100.00;102290.69;4977753;28;20602;-76
2022/11/12 03:50:27;;;;;;;140.82;128.23;;;6.50;99.90;;;6.40;100.00;102278.47;4971862;28;20658;-75
2022/11/12 03:52:57;;;;;;;138.30;125.75;;;6.50;99.90;;;6.46;100.00;102283.16;4969686;28;20257;-78
2022/11/12 03:55:27;;;;;;;136.70;124.57;;;6.50;99.90;;;6.47;100.00;102293.75;4964293;28;20236;-77
2022/11/12 03:57:56;;;;;;;136.65;124.95;;;6.50;99.90;;;6.55;100.00;102292.47;4963244;28;20237;-76
2022/11/12 04:00:25;;;;;;;143.75;130.75;;;6.50;99.90;;;6.52;100.00;102284.44;4967105;28;20320;-78
2022/11/12 04:02:53;;;;;;;135.60;123.45;;;6.60;99.90;;;6.48;100.00;102282.41;4974665;28;20263;-76
2022/11/12 04:08:36;;;;;;;139.15;125.63;;;6.60;99.90;;;6.48;100.00;102284.13;4966185;28;20312;-76
2022/11/12 04:11:16;;;;;;;139.88;127.18;;;6.50;99.90;;;6.48;100.00;102277.16;4970917;28;20230;-76
2022/11/12 04:13:46;;;;;;;144.15;130.25;;;6.50;99.90;;;6.51;100.00;102285.25;4970948;28;20330;-76
2022/11/12 04:22:10;;;;;;;135.55;123.75;;;6.60;99.90;;;6.54;100.00;102276.63;4969710;28;20264;-76
2022/11/12 04:27:33;;;;;;;135.73;123.53;;;6.60;99.90;;;6.59;100.00;102294.47;4964014;28;20275;-76
2022/11/12 04:30:15;;;;;;;145.18;131.30;;;6.60;99.90;;;6.58;100.00;102286.50;4971001;28;20229;-76
2022/11/12 04:32:53;;;;;;;141.23;128.40;;;6.60;99.90;;;6.56;100.00;102290.75;4974595;28;20300;-76
2022/11/12 04:35:23;;;;;;;138.27;126.32;;;6.60;99.90;;;6.57;100.00;102282.97;4969926;28;20650;-75
2022/11/12 04:37:51;;;;;;;138.20;126.13;;;6.60;99.90;;;6.57;100.00;102288.22;4967895;28;20634;-75
2022/11/12 04:45:57;;;;;;;132.43;120.85;;;6.60;99.90;;;6.66;100.00;102291.34;4972063;28;20260;-76
2022/11/12 04:48:25;;;;;;;149.13;135.43;;;6.70;99.90;;;6.53;100.00;102280.97;4970105;28;20332;-76
2022/11/12 04:52:03;;;;;;;140.27;127.82;;;6.70;99.90;;;6.59;100.00;102294.47;4965809;28;20248;-76
2022/11/12 04:53:50;;;;;;;138.10;125.60;;;6.60;99.90;;;6.63;100.00;102295.53;4968583;28;20573;-76
2022/11/12 04:56:16;;;;;;;148.10;133.80;;;6.60;99.90;;;6.63;100.00;102293.81;4968446;28;20253;-76
2022/11/12 04:58:44;;;;;;;151.30;137.18;;;6.70;99.90;;;6.65;100.00;102294.78;4964692;28;20311;-81
2022/11/12 05:01:11;;;;;;;145.38;132.60;;;6.70;99.90;;;6.62;100.00;102288.47;4970190;28;20241;-76
2022/11/12 05:03:38;;;;;;;149.40;135.85;;;6.70;99.90;;;6.64;100.00;102297.34;4961762;28;20229;-77
2022/11/12 05:08:52;;;;;;;148.15;134.27;;;6.70;99.90;;;6.61;100.00;102300.72;4965087;28;20292;-76
2022/11/12 05:11:19;;;;;;;150.57;136.65;;;6.70;99.90;;;6.67;100.00;102321.16;4963050;28;20561;-79
2022/11/12 05:13:46;;;;;;;153.95;140.07;;;6.70;99.90;;;6.66;100.00;102309.75;4948300;28;20233;-75
2022/11/12 05:16:13;;;;;;;155.57;141.20;;;6.70;99.90;;;6.67;100.00;102305.41;4961403;28;20244;-76
2022/11/12 05:18:40;;;;;;;156.10;140.98;;;6.70;99.90;;;6.67;100.00;102308.94;4963003;28;20332;-79
2022/11/12 05:23:53;;;;;;;149.68;135.77;;;6.70;99.90;;;6.67;100.00;102314.19;4965717;28;20712;-76
2022/11/12 05:26:20;;;;;;;157.25;142.23;;;6.70;99.90;;;6.64;100.00;102302.59;4973589;28;20264;-76
2022/11/12 05:28:47;;;;;;;163.07;147.63;;;6.70;99.90;;;6.67;100.00;102308.03;4960680;28;20295;-76
2022/11/12 05:31:14;;;;;;;155.65;141.23;;;6.70;99.90;;;6.68;100.00;102307.19;4965925;28;20232;-76
2022/11/12 05:33:41;;;;;;;149.18;135.82;;;6.70;99.90;;;6.68;100.00;102309.84;4970289;28;20256;-76
2022/11/12 05:36:08;;;;;;;152.82;138.50;;;6.70;99.90;;;6.69;100.00;102303.75;4961468;28;20257;-76
2022/11/12 05:38:37;;;;;;;145.45;132.40;;;6.70;99.90;;;6.71;100.00;102307.38;4967846;28;20312;-77
2022/11/12 05:41:04;;;;;;;147.65;134.80;;;6.70;99.90;;;6.74;100.00;102315.44;4972286;28;20239;-76
2022/11/12 05:43:31;;;;;;;147.32;134.38;;;6.80;99.90;;;6.68;100.00;102304.56;4967278;28;20292;-76
2022/11/12 05:46:01;;;;;;;160.35;144.75;;;6.70;99.90;;;6.68;100.00;102307.19;4970432;28;20233;-77
2022/11/12 05:48:28;;;;;;;151.73;137.73;;;6.70;99.90;;;6.73;100.00;102311.88;4963339;28;20276;-79
2022/11/12 05:51:02;;;;;;;144.90;132.20;;;6.70;99.90;;;6.72;100.00;102317.97;4967659;28;20232;-77
2022/11/12 05:53:50;;;;;;;148.40;134.77;;;6.80;99.90;;;6.69;100.00;102311.63;4967248;28;20233;-75
2022/11/12 05:56:29;;;;;;;147.82;134.18;;;6.70;99.90;;;6.67;100.00;102315.91;4970539;28;20232;-76
2022/11/12 05:59:10;;;;;;;152.10;138.27;;;6.70;99.90;;;6.69;100.00;102320.44;4968658;28;20672;-76
2022/11/12 06:01:42;;;;;;;152.68;138.63;;;6.70;99.90;;;6.76;100.00;102329.56;4965988;28;20240;-78
2022/11/12 06:04:12;;;;;;;159.27;143.55;;;6.80;99.90;;;6.77;100.00;102331.38;4966217;28;20308;-76
2022/11/12 06:06:40;;;;;;;152.85;138.68;;;6.80;99.90;;;6.76;100.00;102326.94;4966185;28;20340;-77
2022/11/12 06:09:08;;;;;;;156.20;140.93;;;6.80;99.90;;;6.77;100.00;102330.47;4966355;28;20224;-80
2022/11/12 06:11:36;;;;;;;151.07;136.27;;;6.80;99.90;;;6.74;100.00;102337.38;4980020;28;20320;-77
2022/11/12 06:14:03;;;;;;;165.50;149.00;;;6.80;99.90;;;6.76;100.00;102333.91;4965042;28;20352;-78
2022/11/12 06:16:31;;;;;;;152.70;138.35;;;6.80;99.90;;;6.75;100.00;102335.63;4962902;28;20320;-77
2022/11/12 06:18:58;;;;;;;151.82;138.43;;;6.80;99.90;;;6.77;100.00;102338.34;4961906;28;20237;-76
2022/11/12 06:21:26;;;;;;;158.52;144.50;;;6.80;99.90;;;6.78;100.00;102343.69;4964835;28;20256;-77
2022/11/12 06:23:58;;;;;;;149.00;136.82;;;6.80;99.90;;;6.81;100.00;102348.22;4967245;28;20239;-78
2022/11/12 06:26:29;;;;;;;142.05;130.38;;;6.80;99.90;;;6.71;100.00;102338.94;4962521;28;20238;-77
2022/11/12 06:28:56;;;;;;;146.35;133.98;;;6.80;99.90;;;6.78;100.00;102348.06;4970657;28;20690;-77
2022/11/12 06:31:23;;;;;;;145.48;132.52;;;6.80;99.90;;;6.77;100.00;102339.25;4961931;28;20292;-76
2022/11/12 06:33:50;;;;;;;141.10;129.57;;;6.80;99.90;;;6.75;100.00;102343.53;4967342;28;20324;-76
2022/11/12 06:36:20;;;;;;;154.32;140.13;;;6.80;99.90;;;6.70;100.00;102332.75;4967086;28;20313;-76
2022/11/12 06:38:47;;;;;;;152.32;139.02;;;6.70;99.90;;;6.77;100.00;102344.50;4958079;28;20265;-76
2022/11/12 06:41:14;;;;;;;143.05;130.95;;;6.80;99.90;;;6.78;100.00;102351.59;4965197;28;20610;-76
2022/11/12 06:43:42;;;;;;;155.23;140.85;;;6.80;99.90;;;6.80;100.00;102349.03;4964088;28;20252;-78
2022/11/12 06:46:14;;;;;;;163.35;148.38;;;6.80;99.90;;;6.79;100.00;102342.88;4971408;28;20284;-76
2022/11/12 06:48:42;;;;;;;159.07;144.05;;;6.80;99.90;;;6.80;100.00;102344.69;4971091;28;20373;-76
2022/11/12 06:51:16;;;;;;;161.90;146.02;;;6.80;99.90;;;6.73;100.00;102338.19;4967269;28;20337;-76
2022/11/12 06:53:44;;;;;;;152.68;138.55;;;6.80;99.90;;;6.74;100.00;102340.00;4968159;28;20293;-80
2022/11/12 06:56:12;;;;;;;168.15;150.77;;;6.80;99.90;;;6.77;100.00;102344.50;4964928;28;20315;-77
2022/11/12 06:58:40;;;;;;;152.90;138.98;;;6.80;99.90;;;6.80;100.00;102343.78;4961600;28;20649;-77
2022/11/12 07:01:11;;;;;;;154.55;141.18;;;6.90;99.90;;;6.84;100.00;102346.66;4972393;28;20696;-78
2022/11/12 07:03:43;;;;;;;152.75;139.25;;;6.80;99.90;;;6.83;100.00;102344.84;4970379;28;20295;-76
2022/11/12 07:06:17;;;;;;;155.57;141.65;;;6.90;99.90;;;6.83;100.00;102338.69;4963487;28;20237;-75
2022/11/12 07:08:50;;;;;;;149.88;137.18;;;6.90;99.90;;;6.81;100.00;102341.22;4966641;28;20249;-77
2022/11/12 07:11:18;;;;;;;146.35;133.60;;;6.80;99.90;;;6.82;100.00;102348.31;4970131;28;20275;-76
2022/11/12 07:13:46;;;;;;;145.20;133.02;;;6.80;99.90;;;6.82;100.00;102340.41;4971873;28;20276;-78
2022/11/12 07:16:17;;;;;;;149.73;137.27;;;6.80;99.90;;;6.84;100.00;102335.22;4956826;28;20257;-79
2022/11/12 07:18:46;;;;;;;151.70;138.90;;;6.90;99.90;;;6.91;100.00;102345.25;4953753;28;20247;-77
2022/11/12 07:21:19;;;;;;;159.75;145.10;;;6.90;99.90;;;6.91;100.00;102340.00;4981936;28;20295;-77
2022/11/12 07:23:47;;;;;;;155.02;141.48;;;6.90;99.90;;;6.85;100.00;102337.03;4966018;28;20229;-77
2022/11/12 07:26:20;;;;;;;159.05;144.95;;;6.90;99.90;;;6.95;100.00;102342.88;4965381;28;20253;-76
2022/11/12 07:28:50;;;;;;;302.30;281.60;;;6.90;99.90;;;6.88;100.00;102334.59;4968236;28;20244;-76
2022/11/12 07:31:19;;;;;;;155.88;142.68;;;6.90;99.90;;;6.78;100.00;102322.66;4969737;28;20252;-77
2022/11/12 07:33:49;;;;;;;166.80;150.93;;;6.90;99.90;;;6.86;100.00;102326.59;4965278;28;20256;-77
2022/11/12 07:36:19;;;;;;;154.18;140.75;;;6.90;99.90;;;6.93;100.00;102335.72;4971213;28;20632;-76
2022/11/12 07:38:50;;;;;;;162.63;147.93;;;7.00;99.90;;;6.85;100.00;102330.06;4971158;28;20251;-76
2022/11/12 07:41:23;;;;;;;157.43;144.23;;;6.90;99.90;;;6.87;100.00;102323.16;4961570;28;20241;-75
2022/11/12 07:43:52;;;;;;;157.75;144.20;;;6.90;99.90;;;6.85;100.00;102326.53;4967678;28;20246;-76
2022/11/12 07:46:23;;;;;;;158.40;145.00;;;6.90;99.90;;;6.91;100.00;102327.75;4965459;28;20240;-76
2022/11/12 07:48:51;;;;;;;159.52;145.57;;;6.90;99.90;;;6.96;100.00;102335.91;4971131;28;20228;-76
2022/11/12 07:51:25;;;;;;;164.70;149.63;;;7.00;99.90;;;6.96;100.00;102328.91;4955259;28;20233;-77
2022/11/12 07:53:55;;;;;;;163.30;148.88;;;7.00;99.90;;;6.95;100.00;102331.47;4969128;28;20237;-77
2022/11/12 07:56:26;;;;;;;164.52;150.05;;;7.00;99.90;;;6.98;100.00;102336.88;4971444;28;20243;-77
2022/11/12 07:58:54;;;;;;;161.98;147.70;;;7.00;99.90;;;6.99;100.00;102328.16;4969202;28;20241;-76
2022/11/12 08:01:36;;;;;;;168.30;153.27;;;7.00;99.90;;;7.03;100.00;102331.03;4967397;28;20233;-80
2022/11/12 08:04:08;;;;;;;173.25;156.32;;;7.10;99.90;;;7.12;100.00;102342.88;4962712;28;20236;-77
2022/11/12 08:06:35;;;;;;;166.98;151.95;;;7.10;99.90;;;7.13;100.00;102345.59;4968579;28;20308;-77
2022/11/12 08:09:06;;;;;;;171.77;156.55;;;7.20;99.90;;;7.15;100.00;102350.94;4966735;28;20317;-78
2022/11/12 08:11:34;;;;;;;160.10;146.30;;;7.20;99.90;;;7.10;100.00;102349.78;4967166;28;20308;-78
2022/11/12 08:14:02;;;;;;;170.35;154.38;;;7.20;99.90;;;7.19;100.00;102364.34;4963765;28;20237;-76
2022/11/12 08:16:29;;;;;;;163.13;149.60;;;7.20;99.90;;;7.03;100.00;102349.47;4966024;28;20233;-76
2022/11/12 08:18:57;;;;;;;171.35;157.50;;;7.10;99.90;;;7.15;100.00;102359.75;4962376;28;20260;-76
2022/11/12 08:21:24;;;;;;;176.02;160.20;;;7.20;99.90;;;7.13;100.00;102350.84;4965982;28;20233;-77
2022/11/12 08:23:51;;;;;;;167.27;152.82;;;7.20;99.90;;;7.23;100.00;102366.31;4969331;28;20264;-76
2022/11/12 08:26:20;;;;;;;168.80;153.70;;;7.20;99.90;;;7.21;100.00;102369.69;4965121;28;20300;-80
2022/11/12 08:28:47;;;;;;;177.63;160.07;;;7.30;99.90;;;7.17;100.00;102366.00;4968182;28;20292;-76
2022/11/12 08:31:21;;;;;;;174.68;158.85;;;7.20;99.90;;;7.23;100.00;102370.69;4970660;28;20233;-77
2022/11/12 08:33:49;;;;;;;175.65;160.25;;;7.30;99.90;;;7.14;100.00;102354.41;4969340;28;20239;-77
2022/11/12 08:36:17;;;;;;;173.85;159.35;;;7.20;99.90;;;7.18;100.00;102366.91;4964472;28;20256;-77
2022/11/12 08:38:45;;;;;;;175.95;160.23;;;7.20;99.90;;;7.18;100.00;102356.38;4968090;28;20237;-77
2022/11/12 08:41:13;;;;;;;174.30;158.70;;;7.20;99.90;;;7.21;100.00;102357.44;4970017;28;20248;-77
2022/11/12 08:43:41;;;;;;;170.95;155.95;;;7.20;99.90;;;7.14;100.00;102355.31;4964195;28;20583;-76
2022/11/12 08:46:09;;;;;;;167.40;153.25;;;7.20;99.90;;;7.24;100.00;102365.50;4984055;28;20241;-77
2022/11/12 08:48:38;;;;;;;177.68;160.85;;;7.30;99.90;;;7.25;100.00;102369.94;4973043;28;20662;-78
2022/11/12 08:51:06;;;;;;;179.63;163.98;;;7.30;99.90;;;7.31;100.00;102372.88;4968276;28;20233;-77
2022/11/12 08:53:34;;;;;;;184.52;167.88;;;7.40;99.90;;;7.28;100.00;102374.47;4977618;28;20320;-77
2022/11/12 08:56:01;;;;;;;183.27;167.40;;;7.30;99.90;;;7.27;100.00;102375.28;4968924;28;20236;-80
2022/11/12 08:58:28;;;;;;;180.60;165.15;;;7.30;99.90;;;7.22;100.00;102369.78;4966432;28;20344;-76
2022/11/12 09:00:56;;;;;;;174.45;159.98;;;7.30;99.90;;;7.13;100.00;102369.28;4970842;28;20229;-77
2022/11/12 09:03:25;;;;;;;181.68;166.27;;;7.20;99.90;;;7.18;100.00;102375.69;4966106;28;20275;-79
2022/11/12 09:05:52;;;;;;;191.68;174.70;;;7.20;99.90;;;7.29;100.00;102384.16;4961418;28;20279;-77
2022/11/12 09:08:24;;;;;;;213.45;194.70;;;7.30;99.90;;;7.14;100.00;102365.81;4958603;28;20312;-77
2022/11/12 09:10:52;;;;;;;290.70;269.90;;;7.20;99.90;;;7.20;100.00;102363.53;4959030;28;20293;-78
2022/11/12 09:13:21;;;;;;;202.63;185.57;;;7.30;99.90;;;7.16;100.00;102358.91;4959919;28;20700;-77
2022/11/12 09:15:49;;;;;;;223.15;202.48;;;;;;;7.13;100.00;102364.00;4958503;28;20316;-77
2022/11/12 09:18:19;;;;;;;220.27;199.48;;;;;;;6.99;100.00;102358.00;4955195;28;20229;-79
2022/11/12 09:20:46;;;;;;;393.27;373.85;;;7.00;99.90;;;6.92;100.00;102358.50;4953068;28;20510;-79
2022/11/12 09:23:15;;;;;;;255.32;235.68;;;7.00;99.90;;;6.80;100.00;102349.94;4964662;28;20234;-77
2022/11/12 09:25:42;;;;;;;219.30;201.25;;;7.00;99.90;;;6.88;100.00;102360.88;4964350;28;20236;-76
2022/11/12 09:28:17;;;;;;;209.80;191.02;;;7.00;99.90;;;6.88;100.00;102366.16;4963505;28;20227;-76
2022/11/12 09:30:47;;;;;;;188.88;172.50;;;7.00;99.90;;;6.85;100.00;102359.00;4960233;28;20302;-77
2022/11/12 09:33:18;;;;;;;198.27;180.15;;;7.00;99.90;;;6.83;100.00;102372.88;4976178;28;20233;-81
2022/11/12 09:35:45;;;;;;;173.85;158.43;;;6.90;99.90;;;6.87;100.00;102378.38;4964708;28;20224;-76
2022/11/12 09:38:16;;;;;;;176.10;160.52;;;6.90;99.90;;;6.86;100.00;102371.31;4986695;23;20291;-86
2022/11/12 09:40:50;;;;;;;186.95;167.70;;;;;;;6.89;100.00;102374.13;4969131;28;20229;-88
2022/11/12 09:43:50;;;;;;;182.38;164.23;;;7.00;99.90;;;6.91;100.00;102368.94;4984545;28;20260;-88
2022/11/12 09:46:38;;;;;;;172.60;156.10;;;7.00;99.90;;;6.95;100.00;102373.53;4971611;28;20276;-87
2022/11/12 09:49:34;;;;;;;176.10;160.13;;;7.00;99.90;;;6.94;100.00;102370.00;4965984;28;20260;-87
2022/11/12 09:52:20;;;;;;;163.98;149.80;;;7.00;99.90;;;6.98;100.00;102376.34;4968644;28;20238;-92
2022/11/12 09:55:00;;;;;;;163.27;148.45;;;7.00;99.90;;;6.88;100.00;102360.88;4964463;28;20317;-83
2022/11/12 09:57:28;;;;;;;171.63;157.35;;;7.00;99.90;;;6.94;100.00;102363.84;4951515;28;20423;-84
2022/11/12 09:59:57;;;;;;;162.35;148.82;;;7.00;99.90;;;6.91;100.00;102361.03;4951033;28;20288;-83
2022/11/12 10:03:06;;;;;;;158.63;146.10;;;7.00;99.90;;;6.99;100.00;102367.63;4970530;28;20312;-83
2022/11/12 10:06:08;;;;;;;160.95;147.07;;;7.00;99.90;;;7.04;100.00;102358.25;4962691;28;20244;-85
2022/11/12 10:08:57;;;;;;;157.90;143.77;;;7.10;99.90;;;6.89;100.00;102336.38;4967852;28;20256;-84
2022/11/12 10:14:56;;;;;;;170.77;153.65;;;7.00;99.90;;;7.11;100.00;102351.59;4959837;28;20232;-85
2022/11/12 10:17:39;;;;;;;168.00;153.48;;;7.20;99.90;;;7.05;100.00;102341.66;4961145;28;20293;-86
2022/11/12 10:20:30;;;;;;;170.00;155.45;;;7.20;99.90;;;7.11;100.00;102355.13;4960086;28;20230;-84
2022/11/12 10:23:45;;;;;;;163.82;149.90;;;7.10;99.90;;;6.93;100.00;102328.75;4950884;28;20240;-84
2022/11/12 10:26:19;;;;;;;155.25;141.77;;;7.10;99.90;;;7.14;100.00;102343.88;4957261;28;20233;-85
2022/11/12 10:29:11;;;;;;;164.25;150.35;;;7.20;99.90;;;7.14;100.00;102330.72;4963722;28;20240;-86
2022/11/12 10:31:38;;;;;;;160.98;147.25;;;7.20;99.90;;;7.18;100.00;102330.06;4958891;28;20247;-86
2022/11/12 10:34:23;;;;;;;181.02;164.85;;;7.20;99.90;;;7.11;100.00;102320.94;4966374;28;20308;-85
2022/11/12 10:36:55;;;;;;;163.63;150.32;;;7.20;99.90;;;7.21;100.00;102324.94;4967560;28;20240;-91
2022/11/12 10:39:41;;;;;;;170.38;156.02;;;7.30;99.90;;;7.10;100.00;102316.50;4966757;28;20229;-87